Hovedside
METAR-TAF:

METAR-TAF

Lufthavner :

Vidsel, Sverige

breddegrad: 65-52N, lengdegrad: 020-08E, høyde over havet: 180 m

Gjeldene værobservasjon

Denne rapporten ble laget for 33 minutter siden, klokken 04:20 UTC
Vind 4 kt fra Vest-nordvest
Temperatur -3°C
Luftfuktighet 93%
Trykk 1011 hPa
Sikt 10 km eller mer

METAR: ESPE 160420Z AUTO 30004KT 9999 NCD M03/M04 Q1011

Tid: 06:53 (04:53 UTC)

Varsel

Denne rapporten ble laget for 17 timer og 43 minutter siden, klokken 11:10 UTC
Varsel gyldig fra 15. klokken 12 UTC til 15. klokken 16 UTC
Vind 7 kt fra Vest-nordvest
Sikt 10 km eller mer
ingen skyer under 1500 m og ingen bygeskyer

TAF: ESPE 151110Z 1512/1516 29007KT CAVOK RMK MIL

Værobservasjoner og værvarsel for over 4000 flyplasser (METAR- og TAF-rapporter).

Tilgjengelige stasjoner er representert av de røde og gule prikkene på kartet.

Hold musepekeren over prikken for å se navnet på stasjonen.

Klikk så for å se værobservasjoner og -varsler.

For å forandre kartet kan du klikke på den grønne knappen med svart kryss for å zoome inn, på den grønne knappen med strek for å zoome ut, eller på de grønne pilene for å se tilstøtende kart.


METAR-TAF: